Time;durP1;ratioP1;P1;durP2;ratioP2;P2;SDS_P1;SDS_P2;PMS_P1;PMS_P2;Temp;Humidity;BMP_temperature;BMP_pressure;BME280_temperature;BME280_humidity;BME280_pressure;Samples;Min_cycle;Max_cycle;Signal;HPM_P1;HPM_P2
2023/09/30 00:02:12;;;;;;;11.98;5.18;;;;;;;15.46;85.17;100440.31;6275415;28;20399;-70
2023/09/30 00:05:15;;;;;;;11.93;6.00;;;;;;;15.52;85.03;100438.06;6280950;28;20067;-70
2023/09/30 00:08:16;;;;;;;13.02;5.43;;;;;;;15.49;84.97;100438.28;6299940;28;20045;-70
2023/09/30 00:11:17;;;;;;;7.78;5.22;;;;;;;15.48;84.25;100435.78;6300004;28;20080;-70
2023/09/30 00:14:18;;;;;;;8.90;5.18;;;;;;;15.51;83.64;100435.56;6294183;28;20434;-71
2023/09/30 00:17:19;;;;;;;7.90;4.95;;;;;;;15.49;83.79;100429.56;6299083;28;20071;-70
2023/09/30 00:20:21;;;;;;;6.35;4.75;;;;;;;15.48;85.16;100428.75;6283555;28;20132;-70
2023/09/30 00:23:22;;;;;;;9.55;5.32;;;;;;;15.47;85.58;100429.69;6274806;28;20483;-71
2023/09/30 00:26:23;;;;;;;11.50;5.57;;;;;;;15.44;84.78;100434.31;6290413;28;20049;-71
2023/09/30 00:29:26;;;;;;;7.05;5.22;;;;;;;15.35;85.49;100440.28;6298380;28;20052;-71
2023/09/30 00:32:28;;;;;;;20.15;5.80;;;;;;;15.31;85.47;100437.03;6298399;28;20395;-71
2023/09/30 00:35:31;;;;;;;8.68;5.88;;;;;;;15.30;84.72;100436.22;6298549;28;20062;-71
2023/09/30 00:38:32;;;;;;;9.55;5.35;;;;;;;15.21;85.27;100434.25;6297966;28;20055;-71
2023/09/30 00:41:35;;;;;;;11.15;5.30;;;;;;;15.05;85.62;100416.19;6275304;28;20049;-71
2023/09/30 00:44:36;;;;;;;8.32;4.93;;;;;;;15.04;86.22;100426.78;6273167;28;20052;-71
2023/09/30 00:47:37;;;;;;;8.40;5.47;;;;;;;15.01;86.79;100424.38;6274113;28;20514;-71
2023/09/30 00:50:39;;;;;;;11.07;5.20;;;;;;;14.98;87.00;100430.69;6273168;28;20057;-71
2023/09/30 00:53:44;;;;;;;9.40;5.55;;;;;;;14.93;86.69;100429.34;6274578;28;20099;-71
2023/09/30 00:56:46;;;;;;;6.53;5.28;;;;;;;14.93;87.13;100434.59;6274170;28;20049;-71
2023/09/30 00:59:51;;;;;;;8.35;5.45;;;;;;;14.82;87.44;100427.53;6272714;28;20109;-71
2023/09/30 01:02:56;;;;;;;12.00;5.78;;;;;;;14.82;87.13;100427.53;6278127;28;20119;-71
2023/09/30 01:05:57;;;;;;;7.80;5.40;;;;;;;14.84;87.25;100430.88;6274125;28;20053;-71
2023/09/30 01:08:58;;;;;;;9.82;5.38;;;;;;;14.84;88.08;100434.31;6272537;28;20156;-71
2023/09/30 01:11:59;;;;;;;7.40;5.28;;;;;;;14.75;87.65;100432.38;6273829;28;20053;-71
2023/09/30 01:15:00;;;;;;;8.00;5.18;;;;;;;14.70;88.00;100430.09;6272696;28;20057;-71
2023/09/30 01:18:01;;;;;;;7.00;5.18;;;;;;;14.71;88.46;100433.56;6272108;28;20136;-71
2023/09/30 01:21:04;;;;;;;13.45;5.10;;;;;;;14.70;87.93;100429.25;6272587;28;20057;-71
2023/09/30 01:24:07;;;;;;;8.52;5.43;;;;;;;14.60;88.34;100430.84;6272208;28;20053;-71
2023/09/30 01:27:09;;;;;;;16.45;6.10;;;;;;;14.58;88.77;100441.50;6273467;28;20084;-71
2023/09/30 01:30:10;;;;;;;13.93;5.70;;;;;;;14.63;89.06;100441.16;6271707;28;20045;-71
2023/09/30 01:33:11;;;;;;;14.20;5.90;;;;;;;14.62;89.26;100440.31;6271472;28;20415;-71
2023/09/30 01:36:12;;;;;;;9.30;5.70;;;;;;;14.60;88.77;100433.47;6271601;28;20057;-71
2023/09/30 01:39:13;;;;;;;8.77;5.85;;;;;;;14.51;89.45;100437.56;6271832;28;20139;-71
2023/09/30 01:42:14;;;;;;;15.38;6.18;;;;;;;14.49;88.76;100431.59;6271827;28;20045;-71
2023/09/30 01:45:15;;;;;;;10.98;6.35;;;;;;;14.47;90.24;100425.63;6273167;28;20064;-71
2023/09/30 01:48:16;;;;;;;15.45;6.07;;;;;;;14.50;89.56;100425.41;6271166;28;20049;-71
2023/09/30 01:51:19;;;;;;;8.82;6.00;;;;;;;14.49;89.30;100429.78;6271409;28;20056;-71
2023/09/30 01:54:20;;;;;;;10.95;6.20;;;;;;;14.41;89.75;100424.28;6272802;28;20079;-71
2023/09/30 01:57:23;;;;;;;9.85;5.80;;;;;;;14.30;90.52;100422.41;6272592;28;20052;-72
2023/09/30 02:00:24;;;;;;;9.30;5.95;;;;;;;14.36;90.26;100415.88;6272749;28;20060;-72
2023/09/30 02:03:24;;;;;;;9.35;5.93;;;;;;;14.27;90.45;100417.38;6276916;28;20053;-72
2023/09/30 02:06:25;;;;;;;8.05;5.53;;;;;;;14.20;91.23;100418.75;6296221;28;20056;-71
2023/09/30 02:09:27;;;;;;;10.02;6.15;;;;;;;14.24;90.80;100420.22;6296098;28;20482;-71
2023/09/30 02:12:31;;;;;;;11.60;6.18;;;;;;;14.15;91.51;100414.78;6297520;28;20052;-72
2023/09/30 02:15:33;;;;;;;8.05;5.55;;;;;;;14.11;91.34;100415.00;6296303;28;20052;-71
2023/09/30 02:18:33;;;;;;;8.75;5.43;;;;;;;14.09;91.10;100418.69;6295601;28;20469;-71
2023/09/30 02:21:35;;;;;;;10.60;5.93;;;;;;;14.06;91.63;100424.13;6296243;28;20052;-71
2023/09/30 02:24:36;;;;;;;10.97;5.87;;;;;;;14.00;93.00;100411.44;6297213;28;20044;-71
2023/09/30 02:27:36;;;;;;;8.35;5.10;;;;;;;14.00;91.68;100420.16;6297542;28;20376;-71
2023/09/30 02:30:37;;;;;;;11.80;5.28;;;;;;;13.99;92.28;100407.97;6295912;28;20052;-70
2023/09/30 02:33:39;;;;;;;9.43;5.78;;;;;;;14.01;91.31;100410.50;6295871;28;20056;-71
2023/09/30 02:36:39;;;;;;;9.48;5.40;;;;;;;13.90;91.95;100403.38;6295942;28;20096;-71
2023/09/30 02:39:40;;;;;;;7.85;4.95;;;;;;;13.86;92.38;100415.03;6295914;28;20040;-71
2023/09/30 02:42:41;;;;;;;12.73;5.25;;;;;;;13.73;93.29;100408.94;6297151;28;20076;-72
2023/09/30 02:45:43;;;;;;;9.60;5.97;;;;;;;13.72;92.59;100415.13;6297015;28;20087;-71
2023/09/30 02:48:44;;;;;;;9.23;5.32;;;;;;;13.75;93.02;100414.91;6293076;28;20123;-71
2023/09/30 02:51:45;;;;;;;10.93;5.30;;;;;;;13.80;93.15;100412.81;6293512;28;20499;-71
2023/09/30 02:54:49;;;;;;;9.52;5.72;;;;;;;13.65;92.77;100412.06;6270954;28;20056;-71
2023/09/30 02:57:50;;;;;;;6.78;4.93;;;;;;;13.70;92.77;100408.19;6271954;28;20064;-71
2023/09/30 03:00:50;;;;;;;9.65;5.30;;;;;;;13.73;93.21;100411.56;6274111;28;20463;-71
2023/09/30 03:03:51;;;;;;;9.23;5.72;;;;;;;13.76;92.13;100408.75;6275564;28;20052;-71
2023/09/30 03:06:56;;;;;;;9.88;5.28;;;;;;;13.70;91.72;100410.81;6276715;28;20064;-71
2023/09/30 03:09:56;;;;;;;6.38;4.72;;;;;;;13.69;93.23;100410.91;6275342;28;20132;-71
2023/09/30 03:13:03;;;;;;;10.88;5.68;;;;;;;13.68;93.47;100407.47;6297068;28;20052;-72
2023/09/30 03:16:04;;;;;;;8.23;5.60;;;;;;;13.60;94.09;100414.19;6300331;28;20463;-71
2023/09/30 03:19:05;;;;;;;7.03;4.97;;;;;;;13.51;93.64;100410.41;6300715;28;20063;-71
2023/09/30 03:22:10;;;;;;;11.05;5.43;;;;;;;13.57;93.19;100404.75;6300615;28;20052;-71
2023/09/30 03:25:11;;;;;;;11.20;4.88;;;;;;;13.45;93.46;100403.78;6300474;28;20052;-70
2023/09/30 03:28:14;;;;;;;9.82;5.40;;;;;;;13.50;92.63;100411.34;6300969;28;20047;-70
2023/09/30 03:31:19;;;;;;;11.23;5.22;;;;;;;13.52;93.22;100406.00;6300914;28;20064;-70
2023/09/30 03:34:20;;;;;;;11.88;5.30;;;;;;;13.43;93.76;100404.84;6300903;28;20479;-71
2023/09/30 03:37:21;;;;;;;8.38;5.53;;;;;;;13.26;95.33;100404.16;6300123;28;20066;-71
2023/09/30 03:40:27;;;;;;;12.27;5.85;;;;;;;13.33;95.32;100417.72;6286964;28;20104;-71
2023/09/30 03:43:28;;;;;;;10.13;6.18;;;;;;;13.42;94.31;100408.38;6275709;28;20097;-71
2023/09/30 03:46:30;;;;;;;8.75;6.05;;;;;;;13.41;94.13;100399.69;6274614;28;20049;-71
2023/09/30 03:49:31;;;;;;;10.25;5.15;;;;;;;13.52;94.60;100409.44;6275583;28;20090;-72
2023/09/30 03:52:34;;;;;;;12.23;6.63;;;;;;;13.53;93.92;100410.28;6275684;28;20430;-72
2023/09/30 03:55:35;;;;;;;11.02;6.20;;;;;;;13.48;93.57;100410.59;6274410;28;20053;-72
2023/09/30 03:58:38;;;;;;;9.02;5.70;;;;;;;13.41;93.74;100407.56;6288215;28;20059;-71
2023/09/30 04:01:40;;;;;;;7.32;5.75;;;;;;;13.45;93.64;100409.03;6299520;28;20048;-71
2023/09/30 04:04:41;;;;;;;8.93;5.65;;;;;;;13.34;93.42;100418.56;6298353;28;20544;-71
2023/09/30 04:07:42;;;;;;;8.55;5.88;;;;;;;13.22;93.78;100404.44;6298539;28;20044;-71
2023/09/30 04:10:43;;;;;;;9.85;5.88;;;;;;;13.26;94.48;100403.28;6298010;28;20101;-71
2023/09/30 04:13:49;;;;;;;10.55;5.68;;;;;;;13.26;94.22;100406.78;6298333;28;20052;-71
2023/09/30 04:16:51;;;;;;;9.60;5.68;;;;;;;13.20;94.10;100409.81;6299626;28;20390;-71
2023/09/30 04:19:52;;;;;;;14.15;5.82;;;;;;;13.12;94.73;100409.47;6298675;28;20438;-71
2023/09/30 04:22:57;;;;;;;11.48;5.47;;;;;;;13.09;94.85;100412.28;6291839;28;20057;-71
2023/09/30 04:25:57;;;;;;;11.05;6.63;;;;;;;13.13;94.33;100415.53;6299996;28;20056;-70
2023/09/30 04:28:59;;;;;;;11.05;6.13;;;;;;;13.13;94.80;100410.31;6298770;28;20135;-71
2023/09/30 04:32:02;;;;;;;13.87;6.63;;;;;;;13.21;94.43;100426.34;6298286;28;20433;-71
2023/09/30 04:35:05;;;;;;;12.13;6.50;;;;;;;13.16;93.72;100428.44;6298261;28;20044;-71
2023/09/30 04:38:06;;;;;;;;;;;;;;;13.17;93.80;100427.50;6274144;28;20372;-71
2023/09/30 04:41:07;;;;;;;8.18;5.25;;;;;;;13.17;94.14;100428.34;6273461;28;19924;-70
2023/09/30 04:44:11;;;;;;;9.65;5.68;;;;;;;13.15;93.99;100437.25;6274448;28;20052;-71
2023/09/30 04:47:14;;;;;;;7.60;5.60;;;;;;;13.15;93.53;100435.44;6273259;28;20049;-71
2023/09/30 04:50:16;;;;;;;7.97;5.18;;;;;;;13.08;94.37;100439.44;6273023;28;20084;-72
2023/09/30 04:53:17;;;;;;;13.25;5.93;;;;;;;13.20;93.49;100438.63;6273359;28;20059;-71
2023/09/30 04:56:18;;;;;;;6.72;5.03;;;;;;;13.25;93.35;100441.78;6274368;28;20045;-70
2023/09/30 04:59:19;;;;;;;11.90;5.82;;;;;;;13.16;94.74;100444.16;6273080;28;20099;-71
2023/09/30 05:02:19;;;;;;;11.23;6.25;;;;;;;13.17;93.47;100446.69;6272887;28;20049;-71
2023/09/30 05:05:20;;;;;;;9.10;5.70;;;;;;;13.19;94.67;100443.97;6272730;28;20053;-71
2023/09/30 05:08:23;;;;;;;10.88;5.38;;;;;;;13.27;94.19;100449.53;6281589;28;20053;-71
2023/09/30 05:11:25;;;;;;;;;;;;;;;13.33;94.19;100450.97;6298321;28;20605;-70
2023/09/30 05:14:28;;;;;;;10.35;5.35;;;;;;;13.28;94.57;100449.44;6297855;28;20375;-71
2023/09/30 05:17:29;;;;;;;9.35;5.90;;;;;;;13.35;94.04;100449.06;6298115;28;20123;-72
2023/09/30 05:20:30;;;;;;;10.93;5.90;;;;;;;13.45;94.71;100450.97;6298183;28;20136;-71
2023/09/30 05:23:32;;;;;;;13.52;5.28;;;;;;;13.52;94.60;100451.41;6296888;28;20457;-71
2023/09/30 05:26:33;;;;;;;8.75;5.72;;;;;;;13.55;94.00;100451.22;6297779;28;20056;-72
2023/09/30 05:29:36;;;;;;;8.82;5.88;;;;;;;13.65;94.11;100451.41;6298021;28;20063;-72
2023/09/30 05:32:38;;;;;;;10.80;5.47;;;;;;;13.75;94.95;100452.47;6295919;28;20044;-71
2023/09/30 05:35:40;;;;;;;12.50;6.87;;;;;;;13.89;95.79;100456.78;6296739;28;20098;-71
2023/09/30 05:38:41;;;;;;;12.55;6.55;;;;;;;13.90;95.04;100459.28;6298183;28;20509;-71
2023/09/30 05:41:42;;;;;;;10.30;5.37;;;;;;;14.02;94.48;100456.75;6296164;28;20122;-71
2023/09/30 05:44:43;;;;;;;10.70;5.72;;;;;;;14.08;93.94;100459.81;6290038;28;20369;-71
2023/09/30 05:47:44;;;;;;;11.82;6.15;;;;;;;14.21;93.60;100467.69;6286359;28;20153;-71
2023/09/30 05:50:47;;;;;;;12.02;6.88;;;;;;;14.37;92.56;100461.34;6287885;28;20059;-71
2023/09/30 05:53:50;;;;;;;12.68;6.68;;;;;;;14.50;91.64;100460.38;6282781;28;20406;-71
2023/09/30 05:56:51;;;;;;;10.50;7.05;;;;;;;14.67;91.12;100463.63;6292518;28;20059;-71
2023/09/30 05:59:52;;;;;;;10.50;6.72;;;;;;;14.82;91.71;100469.56;6286687;28;20049;-71
2023/09/30 06:02:55;;;;;;;14.95;6.63;;;;;;;14.96;92.09;100466.75;6281041;28;20059;-71
2023/09/30 06:05:56;;;;;;;14.55;7.85;;;;;;;15.05;91.92;100475.75;6287142;28;20049;-71
2023/09/30 06:08:58;;;;;;;14.18;7.88;;;;;;;15.21;91.33;100472.84;6294574;28;20130;-70
2023/09/30 06:12:03;;;;;;;16.35;7.68;;;;;;;15.38;89.24;100474.22;6276229;28;20059;-72
2023/09/30 06:15:04;;;;;;;20.85;8.02;;;;;;;15.56;90.80;100480.75;6275514;28;20087;-71
2023/09/30 06:18:06;;;;;;;26.33;8.30;;;;;;;15.73;88.87;100486.56;6270189;28;20084;-70
2023/09/30 06:21:10;;;;;;;12.48;7.93;;;;;;;15.86;87.91;100488.16;6276237;28;20044;-71
2023/09/30 06:24:13;;;;;;;13.30;7.93;;;;;;;15.97;88.20;100487.31;6296402;28;20499;-71
2023/09/30 06:27:14;;;;;;;24.48;8.40;;;;;;;16.13;87.48;100486.97;6293765;28;20491;-70
2023/09/30 06:30:15;;;;;;;15.10;7.93;;;;;;;16.30;87.35;100493.56;6270327;28;20064;-71
2023/09/30 06:33:16;;;;;;;16.45;8.02;;;;;;;16.44;87.18;100492.47;6278183;28;20056;-71
2023/09/30 06:36:20;;;;;;;18.30;8.55;;;;;;;16.60;86.06;100482.41;6299019;28;20131;-71
2023/09/30 06:39:21;;;;;;;24.13;8.93;;;;;;;16.77;85.86;100483.69;6300454;28;20535;-71
2023/09/30 06:42:24;;;;;;;16.40;8.27;;;;;;;16.95;86.20;100497.22;6301437;28;20052;-71
2023/09/30 06:45:26;;;;;;;17.00;9.00;;;;;;;17.11;85.64;100486.25;6300005;28;20140;-71
2023/09/30 06:48:26;;;;;;;18.15;9.57;;;;;;;17.29;84.32;100489.19;6301308;28;20046;-71
2023/09/30 06:51:27;;;;;;;15.43;8.95;;;;;;;17.44;83.53;100489.72;6294649;28;20045;-71
2023/09/30 06:54:28;;;;;;;16.67;8.75;;;;;;;17.61;83.02;100493.63;6288377;28;20380;-71
2023/09/30 06:57:29;;;;;;;23.88;9.02;;;;;;;17.83;82.05;100495.28;6287254;28;20048;-72
2023/09/30 07:00:30;;;;;;;16.15;8.07;;;;;;;18.01;82.79;100488.44;6286705;28;20045;-71
2023/09/30 07:03:32;;;;;;;16.40;8.90;;;;;;;18.19;80.09;100498.41;6274582;28;20088;-71
2023/09/30 07:06:33;;;;;;;16.25;8.25;;;;;;;18.27;78.40;100499.44;6275949;28;20422;-72
2023/09/30 07:09:34;;;;;;;12.07;8.10;;;;;;;18.40;77.38;100495.72;6274628;28;20505;-72
2023/09/30 07:12:37;;;;;;;15.93;8.27;;;;;;;18.58;77.83;100490.66;6281756;28;20045;-71
2023/09/30 07:15:38;;;;;;;23.23;8.07;;;;;;;18.83;78.14;100497.28;6289624;28;20055;-71
2023/09/30 07:18:41;;;;;;;12.75;8.48;;;;;;;19.00;75.55;100490.47;6287428;28;20053;-71
2023/09/30 07:21:42;;;;;;;13.73;8.32;;;;;;;19.18;75.07;100498.56;6282010;28;20479;-71
2023/09/30 07:24:46;;;;;;;14.57;8.88;;;;;;;19.37;73.88;100489.78;6289608;28;20051;-71
2023/09/30 07:27:47;;;;;;;12.00;7.82;;;;;;;19.63;74.26;100492.72;6291737;28;20493;-72
2023/09/30 07:30:48;;;;;;;19.70;8.10;;;;;;;19.80;71.36;100485.88;6300158;28;20057;-71
2023/09/30 07:33:49;;;;;;;16.77;8.50;;;;;;;19.97;70.83;100489.59;6300166;28;20461;-71
2023/09/30 07:36:50;;;;;;;24.17;8.77;;;;;;;20.22;70.31;100501.34;6300095;28;20055;-72
2023/09/30 07:39:50;;;;;;;15.75;8.15;;;;;;;20.36;68.48;100502.69;6298451;28;20518;-71
2023/09/30 07:42:51;;;;;;;15.23;9.05;;;;;;;20.54;69.41;100493.81;6300008;28;20045;-72
2023/09/30 07:45:52;;;;;;;14.97;8.03;;;;;;;20.69;68.88;100498.66;6295589;28;20047;-71
2023/09/30 07:48:54;;;;;;;18.73;9.03;;;;;;;20.83;67.71;100494.66;6283806;28;20140;-71
2023/09/30 07:52:00;;;;;;;11.68;8.07;;;;;;;21.00;66.64;100493.88;6296945;28;20048;-71
2023/09/30 07:55:04;;;;;;;15.82;8.18;;;;;;;21.16;65.27;100502.97;6299693;28;20509;-72
2023/09/30 07:58:07;;;;;;;15.68;9.30;;;;;;;21.30;63.55;100505.91;6289949;28;20049;-71
2023/09/30 08:01:08;;;;;;;11.15;7.82;;;;;;;21.38;64.25;100499.03;6275169;28;20049;-72
2023/09/30 08:04:09;;;;;;;16.90;8.73;;;;;;;21.58;63.28;100508.50;6287948;28;20094;-71
2023/09/30 08:07:10;;;;;;;12.68;8.50;;;;;;;21.74;62.67;100507.78;6299587;28;20055;-71
2023/09/30 08:10:16;;;;;;;18.20;8.75;;;;;;;21.92;63.74;100505.91;6299349;28;20055;-71
2023/09/30 08:13:17;;;;;;;15.27;7.97;;;;;;;22.16;62.07;100503.56;6290526;28;20098;-71
2023/09/30 08:16:19;;;;;;;17.80;8.07;;;;;;;22.32;60.54;100506.31;6279086;28;20060;-72
2023/09/30 08:19:20;;;;;;;23.10;7.70;;;;;;;22.49;59.35;100505.41;6272783;28;20071;-72
2023/09/30 08:22:25;;;;;;;11.80;6.60;;;;;;;22.71;58.38;100503.16;6278533;28;20064;-70
2023/09/30 08:25:26;;;;;;;9.60;6.65;;;;;;;22.93;57.95;100507.03;6298881;28;20048;-69
2023/09/30 08:28:29;;;;;;;13.73;6.80;;;;;;;23.04;58.00;100498.78;6280358;28;20044;-69
2023/09/30 08:31:33;;;;;;;13.20;7.22;;;;;;;23.23;57.51;100508.28;6272754;28;20049;-69
2023/09/30 08:34:34;;;;;;;11.85;6.05;;;;;;;23.40;57.36;100511.78;6281633;28;20054;-69
2023/09/30 08:37:35;;;;;;;11.57;6.10;;;;;;;23.50;55.27;100508.97;6297424;28;20055;-70
2023/09/30 08:40:37;;;;;;;11.07;6.43;;;;;;;23.73;56.19;100509.94;6297665;28;20048;-70
2023/09/30 08:43:39;;;;;;;8.63;5.93;;;;;;;23.79;53.68;100505.81;6282233;28;20053;-70
2023/09/30 08:46:41;;;;;;;12.95;6.32;;;;;;;23.98;53.54;100501.94;6272644;28;20053;-70
2023/09/30 08:49:43;;;;;;;24.17;6.18;;;;;;;24.01;51.96;100498.94;6273510;28;20045;-70
2023/09/30 08:52:47;;;;;;;10.48;4.72;;;;;;;24.13;48.71;100502.06;6273336;28;20136;-70
2023/09/30 08:55:54;;;;;;;10.60;5.00;;;;;;;24.20;48.21;100500.38;6273560;28;20091;-69
2023/09/30 08:58:58;;;;;;;8.70;4.65;;;;;;;24.53;49.49;100506.44;6272304;28;20045;-69
2023/09/30 09:02:00;;;;;;;8.93;4.18;;;;;;;24.76;47.42;100504.84;6285404;28;20052;-70
2023/09/30 09:05:02;;;;;;;6.00;4.18;;;;;;;24.94;47.51;100500.91;6297911;28;20139;-70
2023/09/30 09:08:03;;;;;;;10.93;4.68;;;;;;;25.13;46.85;100504.94;6298073;28;20048;-70
2023/09/30 09:11:05;;;;;;;10.27;4.50;;;;;;;25.09;47.30;100495.63;6297775;28;20052;-70
2023/09/30 09:14:07;;;;;;;15.75;4.57;;;;;;;25.22;45.02;100495.06;6297853;28;20052;-69
2023/09/30 09:17:11;;;;;;;13.73;4.53;;;;;;;25.40;45.16;100496.59;6296894;28;20059;-70
2023/09/30 09:20:24;;;;;;;9.32;4.15;;;;;;;25.56;43.04;100498.31;6283873;28;20040;-70
2023/09/30 09:23:25;;;;;;;10.68;3.63;;;;;;;25.63;44.24;100489.38;6296780;28;20063;-71
2023/09/30 09:26:28;;;;;;;9.73;4.13;;;;;;;25.82;45.53;100500.53;6272945;28;20044;-70
2023/09/30 09:29:28;;;;;;;6.22;3.60;;;;;;;25.90;41.93;100496.00;6276215;28;20043;-70
2023/09/30 09:32:29;;;;;;;15.13;4.00;;;;;;;25.98;41.06;100489.72;6280575;28;20076;-69
2023/09/30 09:35:36;;;;;;;10.10;3.95;;;;;;;25.87;41.30;100488.31;6276735;28;20426;-70
2023/09/30 09:38:49;;;;;;;9.70;3.75;;;;;;;26.00;43.00;100487.69;6280275;28;20079;-69
2023/09/30 09:41:51;;;;;;;8.93;4.38;;;;;;;26.22;42.92;100482.44;6270866;28;20055;-69
2023/09/30 09:44:54;;;;;;;;;;;;;;;26.36;41.68;100483.44;6274568;28;20410;-69
2023/09/30 09:47:56;;;;;;;14.43;5.80;;;;;;;26.42;40.76;100483.53;6276289;28;20007;-69
2023/09/30 09:50:58;;;;;;;13.20;4.03;;;;;;;26.61;40.87;100476.78;6284579;28;20105;-70
2023/09/30 09:54:01;;;;;;;6.75;3.90;;;;;;;26.58;40.61;100477.16;6276726;28;20057;-69
2023/09/30 09:57:08;;;;;;;5.35;3.83;;;;;;;26.77;42.78;100469.53;6291588;28;20106;-70
2023/09/30 10:00:21;;;;;;;10.68;4.50;;;;;;;26.81;42.61;100460.94;6296943;28;20044;-69
2023/09/30 10:03:24;;;;;;;9.80;5.00;;;;;;;27.05;40.35;100464.25;6284519;28;20053;-69
2023/09/30 10:06:25;;;;;;;13.40;4.57;;;;;;;27.17;41.64;100457.38;6285085;28;20052;-69
2023/09/30 10:09:28;;;;;;;15.32;4.68;;;;;;;27.13;42.13;100456.91;6286716;28;20105;-70
2023/09/30 10:12:38;;;;;;;8.88;4.63;;;;;;;27.04;41.37;100451.91;6291000;28;20102;-69
2023/09/30 10:15:42;;;;;;;13.00;4.30;;;;;;;27.25;41.19;100448.41;6286491;28;20049;-69
2023/09/30 10:19:13;;;;;;;10.15;4.93;;;;;;;27.27;42.66;100452.53;6282800;28;20052;-70
2023/09/30 10:25:35;;;;;;;9.05;4.25;;;;;;;27.89;39.72;100447.44;6280578;28;20053;-70
2023/09/30 10:28:41;;;;;;;11.88;3.90;;;;;;;28.02;38.45;100452.03;6283406;28;20045;-69
2023/09/30 10:31:55;;;;;;;6.75;3.97;;;;;;;27.45;37.81;100452.09;6286618;28;20049;-70
2023/09/30 10:34:57;;;;;;;7.45;4.55;;;;;;;27.63;37.16;100448.06;6277204;28;20052;-70
2023/09/30 10:38:24;;;;;;;8.45;4.28;;;;;;;27.86;37.66;100445.09;6270188;28;20182;-70
2023/09/30 10:41:46;;;;;;;7.50;3.83;;;;;;;27.93;38.29;100446.03;6276426;28;20072;-70
2023/09/30 10:44:46;;;;;;;10.95;3.88;;;;;;;28.10;37.16;100435.78;6291208;28;20068;-71
2023/09/30 10:47:48;;;;;;;13.07;4.07;;;;;;;27.89;37.35;100434.84;6280452;28;20457;-71
2023/09/30 10:50:50;;;;;;;9.18;3.67;;;;;;;27.93;37.06;100424.56;6293992;28;20791;-71
2023/09/30 10:53:56;;;;;;;13.05;3.60;;;;;;;28.33;36.90;100424.72;6286736;28;20045;-71
2023/09/30 10:57:00;;;;;;;6.28;3.65;;;;;;;28.22;36.52;100430.69;6290067;28;20053;-71
2023/09/30 11:00:11;;;;;;;5.20;3.10;;;;;;;28.23;36.41;100427.81;6284531;28;20051;-71
2023/09/30 11:03:14;;;;;;;6.95;3.83;;;;;;;28.29;35.92;100423.47;6295219;28;20059;-71
2023/09/30 11:06:20;;;;;;;5.78;2.83;;;;;;;28.13;37.66;100417.44;6291770;28;20055;-72
2023/09/30 11:09:22;;;;;;;7.82;3.25;;;;;;;28.14;34.69;100413.72;6275016;28;20495;-71
2023/09/30 11:12:23;;;;;;;6.95;3.10;;;;;;;28.47;34.61;100414.88;6269931;28;20049;-71
2023/09/30 11:15:24;;;;;;;6.38;3.10;;;;;;;28.56;35.82;100410.16;6270947;28;20049;-71
2023/09/30 11:18:25;;;;;;;5.65;2.88;;;;;;;28.55;33.40;100405.84;6270685;28;20135;-70
2023/09/30 11:21:27;;;;;;;7.50;3.60;;;;;;;28.71;33.44;100408.97;6296542;28;20049;-71
2023/09/30 11:24:29;;;;;;;10.32;3.40;;;;;;;28.66;34.25;100403.41;6298994;28;20056;-70
2023/09/30 11:27:31;;;;;;;;;;;;;;;28.68;33.02;100401.34;6299442;28;20056;-71
2023/09/30 11:30:32;;;;;;;5.35;2.80;;;;;;;28.39;33.68;100402.47;6300107;28;19990;-71
2023/09/30 11:33:33;;;;;;;9.25;3.08;;;;;;;28.30;33.67;100395.63;6300168;28;20048;-71
2023/09/30 11:36:36;;;;;;;9.85;3.63;;;;;;;28.18;33.62;100400.75;6281747;28;20427;-70
2023/09/30 11:39:37;;;;;;;7.63;2.83;;;;;;;28.14;33.81;100389.59;6273605;28;20141;-71
2023/09/30 11:42:38;;;;;;;9.07;3.58;;;;;;;28.28;33.71;100398.50;6273816;28;20407;-71
2023/09/30 11:45:39;;;;;;;12.15;2.92;;;;;;;28.60;34.24;100387.25;6274769;28;20124;-70
2023/09/30 11:49:02;;;;;;;10.18;2.60;;;;;;;28.69;33.08;100380.69;6276681;28;20410;-71
2023/09/30 11:52:07;;;;;;;7.40;3.10;;;;;;;28.79;31.87;100385.66;6286465;28;20049;-72
2023/09/30 11:55:08;;;;;;;9.52;3.00;;;;;;;28.56;32.99;100386.00;6298369;28;20048;-70
2023/09/30 11:58:09;;;;;;;4.60;2.80;;;;;;;28.10;33.31;100384.81;6298521;28;20056;-71
2023/09/30 12:01:13;;;;;;;6.60;2.70;;;;;;;28.77;33.84;100380.50;6299590;28;20087;-70
2023/09/30 12:04:17;;;;;;;6.07;2.95;;;;;;;28.66;33.83;100381.09;6299350;28;20060;-71
2023/09/30 12:07:18;;;;;;;6.13;3.08;;;;;;;27.92;32.48;100377.31;6299384;28;20048;-70
2023/09/30 12:10:20;;;;;;;4.32;2.75;;;;;;;28.69;33.22;100376.13;6299093;28;20478;-71
2023/09/30 12:13:21;;;;;;;4.70;2.50;;;;;;;28.02;32.13;100372.41;6283022;28;20063;-70
2023/09/30 12:16:23;;;;;;;9.55;2.97;;;;;;;28.07;33.35;100367.28;6272517;28;20041;-71
2023/09/30 12:19:26;;;;;;;7.82;2.95;;;;;;;28.18;32.49;100373.09;6280755;28;20053;-72
2023/09/30 12:22:28;;;;;;;7.85;2.78;;;;;;;28.32;32.10;100362.19;6297672;28;20448;-71
2023/09/30 12:25:29;;;;;;;9.55;2.65;;;;;;;28.61;33.11;100376.34;6292216;28;20051;-71
2023/09/30 12:28:34;;;;;;;6.05;2.92;;;;;;;28.37;33.46;100371.50;6298916;28;20044;-71
2023/09/30 12:31:35;;;;;;;4.93;2.97;;;;;;;27.87;33.50;100366.38;6298557;28;20052;-70
2023/09/30 12:34:36;;;;;;;7.55;2.95;;;;;;;27.66;32.52;100356.56;6298581;28;20052;-71
2023/09/30 12:37:38;;;;;;;5.45;2.90;;;;;;;27.69;32.72;100362.34;6298338;28;20048;-71
2023/09/30 12:40:39;;;;;;;7.95;2.95;;;;;;;27.45;33.78;100366.34;6298512;28;20041;-71
2023/09/30 12:43:41;;;;;;;11.57;3.17;;;;;;;27.53;33.48;100365.38;6298356;28;20063;-72
2023/09/30 12:46:42;;;;;;;4.15;2.67;;;;;;;27.58;32.07;100357.53;6297151;28;20052;-71
2023/09/30 12:49:45;;;;;;;5.32;2.75;;;;;;;27.50;33.15;100361.19;6298203;28;20095;-71
2023/09/30 12:52:47;;;;;;;12.05;3.08;;;;;;;27.51;34.84;100349.47;6298360;28;20054;-72
2023/09/30 12:55:48;;;;;;;9.27;2.92;;;;;;;27.25;33.88;100360.84;6296788;28;20055;-71
2023/09/30 12:58:49;;;;;;;3.53;2.80;;;;;;;27.33;35.33;100357.19;6277789;28;20045;-70
2023/09/30 13:01:50;;;;;;;5.95;2.80;;;;;;;27.11;38.07;100346.47;6276599;28;20055;-71
2023/09/30 13:04:51;;;;;;;7.47;2.97;;;;;;;27.17;35.86;100352.91;6279051;28;20045;-71
2023/09/30 13:07:55;;;;;;;12.32;3.45;;;;;;;26.98;35.29;100348.25;6273919;28;20071;-71
2023/09/30 13:10:56;;;;;;;5.60;2.75;;;;;;;26.74;35.23;100344.94;6285052;28;20392;-70
2023/09/30 13:13:57;;;;;;;4.93;3.03;;;;;;;26.92;34.77;100341.81;6277199;28;20049;-71
2023/09/30 13:17:01;;;;;;;3.47;2.67;;;;;;;26.94;37.60;100350.47;6283469;28;20553;-71
2023/09/30 13:20:05;;;;;;;5.03;2.72;;;;;;;26.81;37.18;100340.50;6287021;28;20132;-70
2023/09/30 13:23:05;;;;;;;6.50;2.65;;;;;;;26.90;35.76;100344.69;6283872;28;20053;-71
2023/09/30 13:26:07;;;;;;;6.97;3.10;;;;;;;26.91;36.06;100348.19;6286647;28;20056;-70
2023/09/30 13:29:10;;;;;;;;;;;;;;;27.35;38.21;100344.44;6276606;28;20281;-70
2023/09/30 13:32:11;;;;;;;9.13;3.45;;;;;;;27.61;34.28;100333.00;6281064;28;19965;-70
2023/09/30 13:35:12;;;;;;;5.78;3.63;;;;;;;27.68;35.39;100333.88;6290080;28;20178;-71
2023/09/30 13:38:19;;;;;;;5.70;3.58;;;;;;;27.45;35.18;100325.31;6274176;28;20048;-71
2023/09/30 13:41:19;;;;;;;7.63;3.42;;;;;;;27.31;35.99;100327.09;6282865;28;20067;-71
2023/09/30 13:44:20;;;;;;;12.57;3.30;;;;;;;27.35;36.39;100327.53;6277599;28;20620;-71
2023/09/30 13:47:21;;;;;;;4.38;3.13;;;;;;;27.40;36.82;100331.25;6285444;28;20080;-71
2023/09/30 13:50:22;;;;;;;10.38;3.00;;;;;;;27.19;36.12;100320.59;6285026;28;20102;-71
2023/09/30 13:53:23;;;;;;;6.68;3.13;;;;;;;26.88;35.54;100319.94;6271185;28;20059;-71
2023/09/30 13:56:24;;;;;;;7.10;2.93;;;;;;;26.92;35.46;100320.41;6273881;28;20048;-70
2023/09/30 13:59:25;;;;;;;5.28;2.95;;;;;;;26.91;38.01;100319.59;6271966;28;20392;-70
2023/09/30 14:02:28;;;;;;;4.38;2.90;;;;;;;26.74;35.11;100312.84;6285116;28;20101;-71
2023/09/30 14:05:29;;;;;;;3.60;2.67;;;;;;;26.52;36.71;100314.66;6278679;28;20510;-71
2023/09/30 14:08:30;;;;;;;5.45;2.83;;;;;;;26.41;39.23;100315.19;6280253;28;20049;-70